Hualapai Flat, Nevada Weather observations

Data are for 10 minute period ending at time listed.
 Day   Time   Solar   Ave.   Ave.  Ave.  Vector  Max.   Baro.   Total    
  of    of     Rad.   Air    Rel.  Wind   Wind   Wind  Press.  Precip.   
Year   Day            Temp.  Hum.  Speed  Dir.   Gust                    
2014   (PST)  Kw/m2    F      %     mph   deg.    mph    mb.     in.     
-------------------------------------------------------------------------
 231   12:30   0.13   85.3    20    4.1   178    12.5   869.2    0.00 
 231   12:40   0.11   81.9    23   19.1   224    31.6   869.1    0.00 
 231   12:50   0.10   81.8    21   12.1   216    17.2   869.2    0.00 
 231   13:00   0.11   82.9    16   10.1   236    31.7   869.8    0.00 
 231   13:10   0.12   82.0    16   10.9   126    28.6   869.5    0.00 
 231   13:20   0.08   80.4    20   13.2   145    31.5   869.0    0.00 
 231   13:30   0.07   78.6    24    8.6   177    22.2   869.2    0.00 
 231   13:40   0.07   79.4    25   12.2   254    33.2   869.5    0.00 
 231   13:50   0.09   78.6    26   11.9   280    25.5   869.7    0.01 
 231   14:00   0.10   76.5    32   11.5    10    16.6   869.4    0.00 
 231   14:10   0.11   74.9    34   13.9    59    25.3   869.2    0.00 
 231   14:20   0.20   74.7    35    9.1    58    20.0   869.2    0.00 
 231   14:30   0.21   76.2    37    5.8    53    10.4   869.1    0.00 
 231   14:40   0.15   76.0    40    6.0   135    15.1   869.0    0.00 
 231   14:50   0.16   77.3    30   11.3   163    18.9   868.7    0.00 
 231   15:00   0.19   77.6    28    6.7   193    13.2   868.6    0.00 
 231   15:10   0.14   80.7    31    7.8   237    12.6   868.8    0.00 
 231   15:20   0.16   78.9    32   13.4   214    20.8   869.0    0.00 
 231   15:30   0.29   77.8    35   12.0   200    19.2   869.1    0.00 
 231   15:40   0.35   80.1    27   15.2   213    25.4   868.9    0.00 
 231   15:50   0.30   80.8    26   13.4   203    23.5   869.0    0.00 
 231   16:00   0.17   78.9    32    8.2   180    13.2   869.0    0.00 
 231   16:10   0.15   76.6    34    9.0   321    18.7   869.3    0.00 
 231   16:20   0.14   76.9    30   14.5   335    28.4   868.9    0.00 
 231   16:30   0.23   77.5    28   16.5   340    25.9   868.8    0.00 
 231   16:40   0.14   76.8    29   11.4   351    20.7   868.7    0.00 
 231   16:50   0.36   78.0    30   10.3     9    18.2   868.6    0.00 
 231   17:00   0.32   79.0    30    9.7     7    17.0   868.5    0.00 
 231   17:10   0.30   78.9    29    9.4    33    14.6   868.3    0.00 
 231   17:20   0.15   77.9    31    4.6    14     8.1   868.1    0.00 
 231   17:30   0.07   76.3    33    6.2     0    10.2   868.3    0.00 
 231   17:40   0.06   74.4    34    9.0   355    18.9   868.4    0.00 
 231   17:50   0.05   76.7    28   15.8   338    25.7   868.5    0.00 
 231   18:00   0.03   77.5    26   21.0   329    34.0   868.7    0.00 
 231   18:10   0.03   76.2    29   23.2   339    35.8   868.9    0.00 
 231   18:20   0.04   76.6    28   21.4   343    31.1   869.0    0.00 
 231   18:30   0.03   77.3    27   19.8   345    28.2   869.1    0.00 
 231   18:40   0.01   78.1    26   18.9   306    31.7   869.1    0.00 
 231   18:50   0.01   79.8    23   20.3   289    33.6   869.0    0.00 
 231   19:00   0.00   80.8    21   19.1   279    31.7   869.2    0.00 
 231   19:10   0.00   79.8    22   15.0   266    29.9   869.5    0.00 
 231   19:20   0.00   78.8    26    8.2   320    19.6   869.4    0.00 
 231   19:30   0.00   74.2    36    7.8   331    12.1   869.7    0.00 
 231   19:40   0.00   72.5    41    5.0   325     7.5   869.8    0.00 
 231   19:50   0.00   72.7    37    8.5   314    14.7   869.7    0.00 
 231   20:00   0.00   74.6    32    9.4   321    13.6   869.9    0.00 
 231   20:10   0.00   72.8    37    8.8   328    11.3   870.1    0.00 
 231   20:20   0.00   72.7    35    8.7   318    11.9   870.1    0.00 
 231   20:30   0.00   73.3    33    8.5   314    12.6   870.3    0.00 
 231   20:40   0.00   73.1    34    8.4   322    12.7   870.4    0.00 
 231   20:50   0.00   70.4    41    5.9   345     8.1   870.6    0.00 
 231   21:00   0.00   68.5    44    5.7    22     8.5   870.7    0.00 
 231   21:10   0.00   69.2    42    4.5     9     6.7   870.7    0.00 
 231   21:20   0.00   69.7    40    6.7     2    10.4   870.8    0.00 
 231   21:30   0.00   71.9    35    8.0   348    11.7   870.8    0.00 
 231   21:40   0.00   70.9    38    6.0   314     8.3   870.9    0.00 
 231   21:50   0.00   70.4    37    5.8   309     8.3   870.8    0.00 
 231   22:00   0.00   70.8    36    5.4   310     7.2   870.8    0.00 
 231   22:10   0.00   68.6    41    5.8   304     7.5   870.8    0.00 
 231   22:20   0.00   67.1    43    6.2   299     9.6   870.8    0.00 
 231   22:30   0.00   67.2    43    4.8   310     7.1   870.8    0.00 
 231   22:40   0.00   66.4    45    3.9   318     5.4   870.8    0.00 
 231   22:50   0.00   66.7    44    5.1   328     8.0   870.9    0.00 
 231   23:00   0.00   66.7    45    6.1   341     8.1   871.0    0.00 
 231   23:10   0.00   68.1    43    7.2   347     9.2   871.0    0.00 
 231   23:20   0.00   69.1    40    8.3   331    12.9   871.0    0.00 
 231   23:30   0.00   69.8    39    6.7   317    10.9   871.1    0.00 
 231   23:40   0.00   68.1    40    4.7   276     5.8   871.2    0.00 
 231   23:50   0.00   67.8    40    3.1   259     5.2   871.4    0.00 
 232    0:00   0.00   65.5    48    2.7   107     4.9   871.5    0.00 
 232    0:10   0.00   66.5    43    2.8   257     5.2   871.5    0.00 
 232    0:20   0.00   67.5    41    9.0   314    14.8   871.4    0.00 
 232    0:30   0.00   69.2    38    9.6   321    16.8   871.4    0.00 
 232    0:40   0.00   69.0    38    8.8   331    13.8   871.5    0.00 
 232    0:50   0.00   68.0    39    9.3   325    13.8   871.6    0.00 
 232    1:00   0.00   67.8    38   10.9   323    14.0   871.7    0.00 
 232    1:10   0.00   67.5    38    9.7   322    13.4   871.7    0.00 
 232    1:20   0.00   67.0    39    9.0   319    11.9   871.7    0.00 
 232    1:30   0.00   66.6    40    7.7   312    10.3   871.6    0.00 
 232    1:40   0.00   65.9    41    6.8   316     9.1   871.6    0.00 
 232    1:50   0.00   65.2    43    7.1   325     9.1   871.5    0.00 
 232    2:00   0.00   64.0    45    6.8   322     9.4   871.6    0.00 
 232    2:10   0.00   64.2    45    7.4   302    11.1   871.7    0.00 
 232    2:20   0.00   65.3    42    6.5   314     9.2   871.7    0.00 
 232    2:30   0.00   66.0    41    5.8   315     9.6   871.8    0.00 
 232    2:40   0.00   64.8    43    3.9    77     7.9   871.9    0.00 
 232    2:50   0.00   66.6    38    3.5     0     8.6   871.9    0.00 
 232    3:00   0.00   66.8    40    9.3   318    11.5   871.9    0.00 
 232    3:10   0.00   66.4    42    7.9   321    11.2   871.9    0.00 
 232    3:20   0.00   65.4    44    5.6   300     8.2   871.9    0.00 
 232    3:30   0.00   62.1    48    4.9   237     7.9   872.0    0.00 
 232    3:40   0.00   61.9    49    6.3   277     7.9   871.9    0.00 
 232    3:50   0.00   60.3    54    6.5   296     8.1   871.8    0.00 
 232    4:00   0.00   61.0    52    5.6   292     8.8   871.7    0.00 
 232    4:10   0.00   60.9    52    2.9   200     5.4   871.9    0.00 
 232    4:20   0.00   59.8    53    4.1   257     9.7   871.9    0.00 
 232    4:30   0.00   61.3    55    3.9   345     8.0   871.9    0.00 
 232    4:40   0.00   60.8    54    7.5   305     9.8   871.9    0.00 
 232    4:50   0.00   62.4    52    6.5   298    10.2   871.9    0.00 
 232    5:00   0.00   61.7    53    5.3   287     7.3   872.0    0.00 
 232    5:10   0.00   60.2    57    2.8   338     5.8   872.2    0.00 
 232    5:20   0.01   60.4    56    5.5   288     7.5   872.2    0.00 
 232    5:30   0.01   60.7    57    6.8   299     9.9   872.3    0.00 
 232    5:40   0.03   61.6    56    6.4   308     8.7   872.4    0.00 
 232    5:50   0.06   62.3    55    6.5   311     8.3   872.5    0.00 
 232    6:00   0.08   64.1    53    7.4   318    11.0   872.6    0.00 
 232    6:10   0.10   64.1    54    5.8   316     8.9   872.6    0.00 
 232    6:20   0.13   63.8    60    4.3   326     6.6   872.7    0.00 
 232    6:30   0.16   65.2    57    3.9   351     6.6   872.7    0.00 
 232    6:40   0.18   67.4    54    1.6    21     2.4   872.8    0.00 
 232    6:50   0.22   68.6    60    2.4    60     3.3   872.9    0.00 
 232    7:00   0.25   68.4    61    2.3    59     3.6   872.9    0.00 
 232    7:10   0.28   68.1    57    3.6   117     5.2   873.0    0.00 
 232    7:20   0.31   68.9    57    2.5   135     3.9   873.0    0.00 
 232    7:30   0.35   70.0    56    3.5   138     4.8   873.1    0.00 
 232    7:40   0.38   69.5    51    5.0   136     7.9   873.1    0.00 
 232    7:50   0.41   69.2    53    4.1   144     5.8   873.1    0.00 
 232    8:00   0.43   70.1    51    5.0   137     7.5   873.1    0.00 
 232    8:10   0.47   70.7    48    5.4   140     8.6   873.1    0.00 
 232    8:20   0.50   71.4    47    5.4   137     8.0   873.1    0.00 
 232    8:30   0.53   71.7    46    5.9   130     8.0   873.1    0.00 
 232    8:40   0.56   72.4    46    4.6   134     6.8   873.1    0.00 
 232    8:50   0.58   74.1    42    5.4   146     7.4   873.1    0.00 
 232    9:00   0.61   75.7    37    4.8   153     8.7   873.1    0.00 
 232    9:10   0.63   77.2    36    5.9   153     8.8   873.1    0.00 
 232    9:20   0.65   75.5    40    5.5   138     8.0   873.0    0.00 
 232    9:30   0.68   76.4    38    6.6   147    11.3   873.1    0.00 
 232    9:40   0.70   76.3    37    5.9   139    10.9   873.0    0.00 
 232    9:50   0.72   78.0    35    5.6   144     8.7   872.8    0.00 
 232   10:00   0.74   77.6    34    4.2   115     7.9   872.8    0.00 
 232   10:10   0.76   78.5    34    4.7   131     8.5   872.6    0.00 
 232   10:20   0.77   78.8    34    3.9   111     6.9   872.5    0.00 
 232   10:30   0.79   79.7    32    4.0   141     7.4   872.4    0.00 
 232   10:40   0.81   81.9    30    4.8   167     9.2   872.2    0.00 
 232   10:50   0.83   81.8    30    5.0   102     9.3   872.0    0.00 
 232   11:00   0.84   80.2    30    4.0   100    12.8   871.9    0.00 
 232   11:10   0.84   82.4    33    1.6    24     5.1   871.9    0.00 
 232   11:20   0.84   83.4    27    6.1   274    12.9   871.8    0.00 
 232   11:30   0.86   81.4    28   12.0   269    20.5   871.7    0.00 
 232   11:40   0.86   86.3    20   10.4   220    22.9   871.8    0.00 
 232   11:50   0.87   87.0    19   11.9   237    21.2   871.7    0.00 
 232   12:00   0.87   85.5    23    9.5   258    16.6   871.6    0.00 
 232   12:10   0.89   82.2    28    8.4   291    16.5   871.5    0.00 
 232   12:20   0.55   85.4    22    6.7   206    13.9   871.4    0.00 

Return to Hualapai Flat graphs page.


Western Regional Climate Center,wrcc@dri.edu